Time;durP1;ratioP1;P1;durP2;ratioP2;P2;SDS_P1;SDS_P2;PMS_P1;PMS_P2;Temp;Humidity;BMP_temperature;BMP_pressure;BME280_temperature;BME280_humidity;BME280_pressure;Samples;Min_cycle;Max_cycle;Signal;HPM_P1;HPM_P2
2023/10/16 00:00:30;;;;;;;2.88;1.52;;;10.40;94.30;;;;;;4988436;28;20038;-65
2023/10/16 00:03:00;;;;;;;4.72;1.38;;;10.30;94.80;;;;;;4992172;28;20029;-66
2023/10/16 00:05:31;;;;;;;5.25;1.63;;;10.30;94.90;;;;;;4989293;28;20042;-67
2023/10/16 00:07:57;;;;;;;3.53;1.30;;;10.30;94.50;;;;;;4991092;28;20792;-68
2023/10/16 00:10:24;;;;;;;5.38;1.60;;;10.20;94.50;;;;;;4988530;28;20026;-66
2023/10/16 00:12:50;;;;;;;4.60;1.48;;;10.20;95.10;;;;;;4988651;28;20046;-65
2023/10/16 00:15:16;;;;;;;3.57;1.40;;;10.20;94.90;;;;;;4991535;28;20034;-66
2023/10/16 00:17:43;;;;;;;3.17;1.50;;;10.20;94.50;;;;;;4988763;28;20397;-65
2023/10/16 00:20:14;;;;;;;2.60;1.13;;;10.20;94.50;;;;;;4995207;28;20061;-65
2023/10/16 00:22:43;;;;;;;3.25;1.38;;;10.20;94.10;;;;;;4988947;28;20482;-66
2023/10/16 00:25:10;;;;;;;2.65;1.35;;;10.20;94.60;;;;;;4989670;28;20133;-67
2023/10/16 00:27:37;;;;;;;;;;;10.10;94.20;;;;;;4992546;28;20076;-66
2023/10/16 00:30:07;;;;;;;4.20;1.20;;;10.10;94.70;;;;;;4979936;28;20289;-65
2023/10/16 00:32:36;;;;;;;6.55;1.30;;;10.00;94.80;;;;;;4984738;28;20050;-66
2023/10/16 00:35:03;;;;;;;3.72;1.65;;;10.10;94.40;;;;;;4991121;28;20064;-67
2023/10/16 00:37:32;;;;;;;4.57;1.40;;;10.00;94.00;;;;;;4994661;28;20025;-65
2023/10/16 00:39:57;;;;;;;6.55;1.42;;;10.10;94.20;;;;;;4991160;28;20037;-66
2023/10/16 00:42:23;;;;;;;8.77;1.85;;;10.10;94.60;;;;;;4989468;28;20038;-66
2023/10/16 00:44:56;;;;;;;5.57;1.83;;;10.00;96.20;;;;;;4990368;28;20493;-67
2023/10/16 00:47:21;;;;;;;1.73;1.02;;;9.90;95.60;;;;;;4990719;28;20109;-66
2023/10/16 00:49:49;;;;;;;3.47;1.40;;;9.70;96.90;;;;;;4989343;28;20474;-69
2023/10/16 00:52:18;;;;;;;3.22;1.73;;;9.70;96.30;;;;;;4988119;28;20081;-66
2023/10/16 00:54:46;;;;;;;4.45;1.42;;;9.70;96.80;;;;;;4989383;28;20457;-69
2023/10/16 00:57:13;;;;;;;4.45;1.40;;;9.60;96.60;;;;;;4994406;28;20434;-67
2023/10/16 00:59:40;;;;;;;3.75;1.33;;;9.70;98.00;;;;;;4988586;28;20466;-67
2023/10/16 01:04:36;;;;;;;7.18;1.40;;;9.60;96.50;;;;;;4991452;28;20034;-68
2023/10/16 01:07:01;;;;;;;;;;;9.70;97.00;;;;;;4988704;28;20035;-67
2023/10/16 01:09:33;;;;;;;5.30;1.73;;;9.60;98.00;;;;;;4987863;28;19909;-66
2023/10/16 01:11:59;;;;;;;7.45;1.42;;;9.50;97.80;;;;;;4989411;28;20125;-69
2023/10/16 01:14:25;;;;;;;3.47;1.48;;;9.50;98.30;;;;;;4989735;28;20253;-66
2023/10/16 01:16:54;;;;;;;7.47;1.50;;;9.50;98.40;;;;;;4990001;28;20042;-65
2023/10/16 01:19:20;;;;;;;5.05;1.45;;;9.30;97.80;;;;;;4994535;28;20072;-65
2023/10/16 01:21:49;;;;;;;8.27;1.57;;;9.50;98.10;;;;;;4988228;28;20030;-70
2023/10/16 01:24:16;;;;;;;4.78;1.52;;;9.50;99.00;;;;;;4991666;28;20808;-72
2023/10/16 01:26:42;;;;;;;5.90;1.63;;;9.40;99.30;;;;;;4990981;28;20066;-67
2023/10/16 01:29:13;;;;;;;4.22;1.40;;;9.40;99.20;;;;;;4988250;28;20133;-70
2023/10/16 01:31:40;;;;;;;6.22;1.95;;;9.50;98.60;;;;;;4992516;28;20045;-68
2023/10/16 01:34:10;;;;;;;2.72;1.58;;;9.40;99.40;;;;;;4989522;28;20498;-66
2023/10/16 01:36:37;;;;;;;2.80;1.10;;;9.40;98.60;;;;;;4986257;28;20038;-66
2023/10/16 01:39:08;;;;;;;6.10;1.30;;;9.40;99.10;;;;;;4988646;28;20026;-66
2023/10/16 01:41:34;;;;;;;4.78;1.30;;;9.30;99.60;;;;;;4989549;28;20034;-70
2023/10/16 01:44:09;;;;;;;3.17;1.50;;;9.30;99.60;;;;;;4989520;28;20540;-66
2023/10/16 01:46:35;;;;;;;4.15;1.45;;;9.30;99.90;;;;;;4991063;28;20440;-65
2023/10/16 01:49:02;;;;;;;4.13;1.30;;;9.10;99.90;;;;;;4991648;28;20109;-66
2023/10/16 01:51:30;;;;;;;6.55;1.55;;;9.20;99.90;;;;;;4977183;28;20053;-66
2023/10/16 01:53:55;;;;;;;5.93;1.48;;;9.10;99.90;;;;;;4988594;28;20030;-68
2023/10/16 01:56:22;;;;;;;4.65;1.50;;;9.20;99.70;;;;;;4989465;28;20407;-65
2023/10/16 01:58:52;;;;;;;;;;;9.30;99.90;;;;;;4992724;28;20143;-68
2023/10/16 02:01:19;;;;;;;5.55;1.77;;;9.40;99.70;;;;;;4984439;28;19910;-71
2023/10/16 02:03:48;;;;;;;6.30;1.75;;;9.40;99.10;;;;;;4988078;28;20406;-68
2023/10/16 02:06:15;;;;;;;5.05;1.33;;;9.50;99.20;;;;;;4991391;28;20079;-66
2023/10/16 02:08:43;;;;;;;4.78;2.08;;;9.40;99.90;;;;;;4989880;28;20026;-66
2023/10/16 02:11:10;;;;;;;9.45;2.00;;;9.40;99.90;;;;;;4988279;28;20041;-68
2023/10/16 02:13:36;;;;;;;5.32;2.22;;;9.40;99.20;;;;;;4988860;28;20054;-66
2023/10/16 02:16:06;;;;;;;3.20;1.95;;;9.40;99.10;;;;;;4994239;28;20025;-66
2023/10/16 02:18:37;;;;;;;6.97;1.75;;;9.40;98.50;;;;;;4988824;28;20034;-68
2023/10/16 02:21:11;;;;;;;6.93;1.92;;;9.40;98.50;;;;;;4988111;28;20072;-66
2023/10/16 02:23:40;;;;;;;7.93;1.83;;;9.40;98.60;;;;;;5019957;28;20034;-67
2023/10/16 02:26:06;;;;;;;8.95;1.67;;;9.40;97.70;;;;;;4988901;28;20034;-66
2023/10/16 02:28:32;;;;;;;5.20;1.63;;;9.40;98.00;;;;;;4990135;28;20088;-70
2023/10/16 02:31:13;;;;;;;;;;;9.40;99.10;;;;;;4992819;28;20125;-66
2023/10/16 02:33:44;;;;;;;9.77;2.35;;;9.30;98.20;;;;;;4989326;28;19956;-66
2023/10/16 02:36:09;;;;;;;2.42;1.67;;;9.40;97.60;;;;;;4979053;28;20022;-68
2023/10/16 02:38:35;;;;;;;5.70;2.23;;;9.40;98.90;;;;;;4991653;28;20576;-67
2023/10/16 02:41:03;;;;;;;7.90;1.87;;;9.30;99.10;;;;;;4988600;28;20026;-67
2023/10/16 02:43:36;;;;;;;4.88;1.30;;;9.30;97.70;;;;;;4990778;28;20026;-66
2023/10/16 02:46:08;;;;;;;5.50;1.60;;;9.30;98.30;;;;;;4986657;28;20038;-67
2023/10/16 02:48:35;;;;;;;3.80;1.30;;;9.30;98.80;;;;;;4988103;28;20406;-65
2023/10/16 02:51:02;;;;;;;6.10;1.75;;;9.30;98.80;;;;;;4986057;28;20121;-66
2023/10/16 02:53:30;;;;;;;6.35;1.38;;;9.30;98.10;;;;;;4988414;28;20073;-65
2023/10/16 02:56:08;;;;;;;7.32;1.60;;;9.20;98.30;;;;;;4986538;28;20026;-67
2023/10/16 03:01:21;;;;;;;3.00;1.42;;;9.30;98.80;;;;;;4985126;28;20033;-67
2023/10/16 03:03:48;;;;;;;6.35;1.50;;;9.20;98.70;;;;;;4988292;28;20038;-69
2023/10/16 03:06:15;;;;;;;5.50;1.92;;;9.30;98.80;;;;;;4993785;28;20046;-68
2023/10/16 03:08:48;;;;;;;4.90;1.60;;;9.20;98.20;;;;;;4985992;28;20030;-67
2023/10/16 03:11:14;;;;;;;8.88;1.73;;;9.20;97.90;;;;;;4988922;28;20025;-66
2023/10/16 03:13:40;;;;;;;10.43;2.33;;;9.30;98.10;;;;;;4989724;28;20038;-66
2023/10/16 03:16:16;;;;;;;8.75;2.25;;;9.20;98.10;;;;;;4976530;28;20080;-65
2023/10/16 03:18:44;;;;;;;10.05;3.08;;;9.20;98.30;;;;;;4990551;28;20117;-67
2023/10/16 03:23:44;;;;;;;4.90;1.92;;;9.20;97.60;;;;;;4995763;28;20466;-67
2023/10/16 03:26:21;;;;;;;10.73;2.53;;;9.20;97.70;;;;;;4987874;28;20064;-69
2023/10/16 03:28:50;;;;;;;9.48;3.42;;;9.20;98.80;;;;;;4990573;28;20510;-70
2023/10/16 03:31:17;;;;;;;6.13;2.20;;;9.10;98.60;;;;;;4990604;28;20072;-69
2023/10/16 03:33:43;;;;;;;9.30;3.00;;;9.20;98.70;;;;;;4990609;28;20561;-69
2023/10/16 03:36:09;;;;;;;;;;;9.10;97.80;;;;;;4989536;28;20018;-68
2023/10/16 03:38:40;;;;;;;4.43;2.00;;;9.20;98.10;;;;;;4990973;28;19914;-72
2023/10/16 03:41:27;;;;;;;3.63;1.83;;;9.10;97.60;;;;;;4990378;28;20109;-68
2023/10/16 03:43:57;;;;;;;4.45;2.30;;;9.20;98.00;;;;;;4987783;28;20042;-66
2023/10/16 03:46:29;;;;;;;3.70;1.67;;;9.10;98.00;;;;;;4984847;28;20058;-67
2023/10/16 03:48:56;;;;;;;6.82;1.67;;;9.10;97.80;;;;;;4989017;28;20409;-68
2023/10/16 03:51:22;;;;;;;4.35;1.80;;;9.10;97.80;;;;;;4989598;28;20058;-69
2023/10/16 03:53:52;;;;;;;7.30;1.60;;;9.10;98.00;;;;;;4991096;28;20092;-69
2023/10/16 03:56:18;;;;;;;8.23;2.08;;;9.10;97.10;;;;;;4990658;28;20033;-65
2023/10/16 03:58:44;;;;;;;5.35;2.05;;;9.10;97.30;;;;;;4987940;28;20913;-65
2023/10/16 04:01:11;;;;;;;3.10;1.70;;;9.10;97.00;;;;;;4989745;28;20133;-68
2023/10/16 04:03:58;;;;;;;8.65;1.90;;;9.10;96.90;;;;;;4993410;28;20403;-65
2023/10/16 04:06:25;;;;;;;4.72;1.75;;;9.10;96.70;;;;;;4987325;28;20180;-66
2023/10/16 04:08:53;;;;;;;3.88;2.00;;;9.00;97.10;;;;;;4993882;28;20498;-66
2023/10/16 04:11:21;;;;;;;9.05;1.88;;;9.00;97.10;;;;;;4988744;28;20490;-68
2023/10/16 04:13:49;;;;;;;6.07;1.58;;;9.00;97.60;;;;;;4987739;28;20030;-65
2023/10/16 04:21:43;;;;;;;3.42;1.63;;;8.80;96.90;;;;;;4988952;28;20037;-65
2023/10/16 04:29:46;;;;;;;6.63;2.15;;;8.80;97.60;;;;;;4989139;28;20491;-68
2023/10/16 04:34:52;;;;;;;5.85;2.45;;;8.80;97.50;;;;;;4988896;28;20035;-68
2023/10/16 04:37:36;;;;;;;6.80;2.80;;;8.80;96.70;;;;;;4987872;28;20049;-66
2023/10/16 04:53:07;;;;;;;4.40;2.10;;;8.70;97.50;;;;;;4989800;28;20077;-67
2023/10/16 05:00:57;;;;;;;5.65;1.77;;;8.60;97.40;;;;;;4989081;28;20117;-66
2023/10/16 05:03:56;;;;;;;4.85;2.05;;;8.50;97.80;;;;;;4988510;28;20050;-66
2023/10/16 05:15:20;;;;;;;9.50;2.08;;;8.40;98.40;;;;;;4983993;28;20095;-70
2023/10/16 06:14:54;;;;;;;5.35;2.38;;;8.30;98.10;;;;;;4985793;28;20181;-65
2023/10/16 06:17:23;;;;;;;9.13;2.40;;;8.30;98.60;;;;;;4988051;28;20557;-65
2023/10/16 06:19:51;;;;;;;5.40;2.53;;;8.30;98.70;;;;;;4981829;28;20030;-67
2023/10/16 06:22:16;;;;;;;8.98;2.25;;;8.30;99.20;;;;;;4983767;28;20038;-66
2023/10/16 06:24:44;;;;;;;8.37;2.43;;;8.40;98.40;;;;;;4982421;28;20112;-66
2023/10/16 06:27:11;;;;;;;6.03;2.20;;;8.40;97.90;;;;;;4984869;28;20038;-66
2023/10/16 06:29:41;;;;;;;7.07;2.35;;;8.50;97.60;;;;;;4987778;28;20084;-66
2023/10/16 06:32:18;;;;;;;8.10;2.15;;;8.60;98.10;;;;;;4988027;28;20454;-66
2023/10/16 06:34:47;;;;;;;4.97;1.83;;;8.60;97.70;;;;;;4986661;28;20176;-68
2023/10/16 06:37:21;;;;;;;6.13;1.90;;;8.60;98.00;;;;;;4989305;28;20494;-68
2023/10/16 06:39:54;;;;;;;6.43;2.38;;;8.60;97.40;;;;;;4987260;28;20528;-71
2023/10/16 06:42:20;;;;;;;9.75;2.50;;;8.70;97.70;;;;;;4989390;28;20085;-66
2023/10/16 06:45:19;;;;;;;10.75;2.58;;;8.80;96.90;;;;;;4986526;28;20042;-67
2023/10/16 06:47:48;;;;;;;5.60;2.50;;;8.80;96.80;;;;;;4989526;28;20447;-67
2023/10/16 06:50:33;;;;;;;6.70;2.40;;;8.80;96.80;;;;;;4992061;28;20081;-69
2023/10/16 06:53:00;;;;;;;4.75;2.10;;;9.00;97.00;;;;;;4988619;28;20523;-67
2023/10/16 06:55:26;;;;;;;5.55;2.33;;;9.00;96.80;;;;;;4988960;28;20045;-69
2023/10/16 06:57:51;;;;;;;8.77;2.17;;;9.10;96.20;;;;;;4992530;28;20022;-67
2023/10/16 07:00:27;;;;;;;6.40;1.97;;;9.10;96.20;;;;;;4991644;28;20105;-67
2023/10/16 07:02:56;;;;;;;6.53;2.20;;;9.10;95.90;;;;;;4990516;28;20030;-71
2023/10/16 07:05:42;;;;;;;6.47;2.13;;;9.10;95.90;;;;;;4991629;28;20038;-69
2023/10/16 07:08:11;;;;;;;5.68;1.85;;;9.20;95.40;;;;;;4987971;28;20028;-66
2023/10/16 07:10:41;;;;;;;6.75;2.05;;;9.30;95.20;;;;;;4993108;28;20120;-67
2023/10/16 07:13:08;;;;;;;4.03;2.22;;;9.60;94.00;;;;;;4990907;28;20418;-67
2023/10/16 07:15:33;;;;;;;7.63;2.25;;;9.90;93.30;;;;;;4994958;28;20050;-68
2023/10/16 07:18:05;;;;;;;9.80;2.20;;;10.40;92.70;;;;;;4994235;28;20034;-69
2023/10/16 07:20:52;;;;;;;2.53;1.58;;;11.10;90.70;;;;;;4988989;28;20108;-71
2023/10/16 07:23:20;;;;;;;6.67;2.00;;;11.50;89.20;;;;;;4990516;28;20773;-70
2023/10/16 07:25:56;;;;;;;5.40;2.10;;;10.90;90.00;;;;;;4992873;28;20087;-68
2023/10/16 07:28:26;;;;;;;6.25;2.45;;;10.50;91.00;;;;;;4991840;28;20109;-70
2023/10/16 07:30:56;;;;;;;4.85;1.92;;;10.70;91.40;;;;;;4991116;28;20062;-70
2023/10/16 07:33:22;;;;;;;7.07;2.60;;;11.00;90.50;;;;;;4991050;28;20030;-67
2023/10/16 07:35:50;;;;;;;3.90;2.17;;;10.80;90.60;;;;;;4991294;28;20034;-68
2023/10/16 07:38:20;;;;;;;6.97;2.47;;;11.10;91.50;;;;;;4995830;28;20289;-68
2023/10/16 07:40:52;;;;;;;5.32;2.15;;;11.40;90.00;;;;;;4990066;28;20023;-67
2023/10/16 07:43:28;;;;;;;7.13;2.17;;;11.60;88.70;;;;;;4992068;28;20046;-66
2023/10/16 07:48:51;;;;;;;8.70;2.60;;;11.80;87.50;;;;;;4988875;28;20038;-67
2023/10/16 07:51:20;;;;;;;5.88;2.05;;;12.50;85.30;;;;;;4989215;28;20475;-66
2023/10/16 07:53:49;;;;;;;9.25;2.47;;;12.60;82.40;;;;;;4988821;28;20045;-68
2023/10/16 07:56:25;;;;;;;4.80;2.03;;;14.00;79.10;;;;;;4989098;28;20023;-71
2023/10/16 07:59:18;;;;;;;5.93;2.00;;;14.10;79.50;;;;;;4993880;28;20041;-67
2023/10/16 08:01:52;;;;;;;6.75;2.50;;;15.10;76.10;;;;;;4989611;28;20286;-67
2023/10/16 08:10:28;;;;;;;12.95;2.17;;;13.70;78.60;;;;;;4987248;28;20046;-67
2023/10/16 08:12:44;;;;;;;4.50;2.20;;;13.20;81.40;;;;;;4988690;28;20721;-68
2023/10/16 08:15:14;;;;;;;4.43;2.17;;;13.10;80.30;;;;;;4987824;28;20100;-66
2023/10/16 08:17:43;;;;;;;7.88;2.00;;;13.30;81.60;;;;;;4990411;28;20189;-66
2023/10/16 08:20:17;;;;;;;4.97;2.03;;;13.40;80.10;;;;;;4992382;28;20034;-72
2023/10/16 08:22:46;;;;;;;5.88;2.38;;;13.50;81.50;;;;;;4992283;28;20034;-69
2023/10/16 08:25:30;;;;;;;6.07;1.75;;;13.20;82.70;;;;;;4988832;28;20122;-70
2023/10/16 08:27:58;;;;;;;3.92;2.28;;;13.00;81.60;;;;;;4991056;28;20042;-68
2023/10/16 08:33:07;;;;;;;5.32;1.85;;;12.80;83.40;;;;;;4987616;28;20049;-65
2023/10/16 08:35:39;;;;;;;6.70;2.37;;;12.80;83.50;;;;;;4990438;28;20030;-70
2023/10/16 08:38:14;;;;;;;5.93;2.15;;;12.90;83.60;;;;;;4992094;28;20141;-66
2023/10/16 08:40:44;;;;;;;5.30;1.90;;;12.90;83.00;;;;;;4989766;28;20915;-66
2023/10/16 08:43:10;;;;;;;5.55;2.05;;;12.70;85.20;;;;;;4988335;28;20022;-66
2023/10/16 08:45:44;;;;;;;5.90;2.55;;;12.80;83.90;;;;;;4987709;28;20038;-67
2023/10/16 08:48:10;;;;;;;4.43;1.98;;;13.10;84.00;;;;;;4989837;28;20038;-70
2023/10/16 08:50:43;;;;;;;4.38;1.98;;;13.20;81.20;;;;;;4987575;28;20042;-67
2023/10/16 08:55:56;;;;;;;4.47;1.90;;;13.40;82.00;;;;;;4987425;28;20085;-68
2023/10/16 08:58:22;;;;;;;6.68;1.85;;;13.30;81.00;;;;;;4990576;28;20137;-69
2023/10/16 09:00:49;;;;;;;5.03;2.88;;;13.40;82.70;;;;;;4990764;28;20039;-69
2023/10/16 09:03:18;;;;;;;5.35;2.10;;;13.30;82.10;;;;;;4987653;28;20039;-66
2023/10/16 09:05:44;;;;;;;8.20;2.17;;;13.30;80.40;;;;;;4988890;28;20037;-66
2023/10/16 09:08:14;;;;;;;9.50;1.90;;;13.30;82.30;;;;;;4986934;28;20038;-66
2023/10/16 09:10:41;;;;;;;8.32;2.22;;;13.50;82.60;;;;;;4990476;28;20084;-67
2023/10/16 09:13:17;;;;;;;5.97;2.13;;;13.80;82.10;;;;;;4986172;28;20074;-69
2023/10/16 09:15:46;;;;;;;7.88;2.15;;;13.80;82.00;;;;;;4988892;28;20037;-66
2023/10/16 09:18:14;;;;;;;5.65;2.42;;;13.80;81.00;;;;;;4987202;28;20088;-66
2023/10/16 09:20:43;;;;;;;7.78;1.98;;;13.80;82.10;;;;;;4990044;28;20034;-68
2023/10/16 09:23:14;;;;;;;10.90;2.10;;;13.80;80.70;;;;;;4987771;28;20037;-69
2023/10/16 09:25:46;;;;;;;5.88;2.08;;;13.80;82.00;;;;;;4991346;28;20041;-67
2023/10/16 09:28:18;;;;;;;10.65;2.05;;;13.70;81.80;;;;;;4988860;28;20109;-68
2023/10/16 09:30:47;;;;;;;9.60;1.63;;;13.80;82.20;;;;;;4993144;28;20046;-70
2023/10/16 09:33:14;;;;;;;8.00;2.05;;;13.40;81.10;;;;;;4990935;28;20077;-70
2023/10/16 09:35:43;;;;;;;3.63;1.73;;;13.50;84.60;;;;;;4991492;28;20026;-71
2023/10/16 09:38:19;;;;;;;5.00;1.85;;;13.70;82.60;;;;;;4986903;28;20049;-68
2023/10/16 09:41:31;;;;;;;5.05;2.35;;;14.00;82.40;;;;;;4984442;28;20033;-68
2023/10/16 09:43:48;;;;;;;11.93;2.40;;;13.80;80.80;;;;;;4988488;28;20041;-70
2023/10/16 09:49:21;;;;;;;7.30;2.60;;;13.90;82.30;;;;;;4964383;28;20070;-70
2023/10/16 09:51:49;;;;;;;3.85;2.00;;;14.00;83.60;;;;;;4963070;28;20046;-69
2023/10/16 09:54:14;;;;;;;5.18;2.03;;;14.10;84.30;;;;;;4974315;28;20085;-67
2023/10/16 09:56:44;;;;;;;5.53;1.73;;;14.10;81.30;;;;;;4991237;28;20104;-70
2023/10/16 09:59:26;;;;;;;8.60;2.10;;;14.30;81.00;;;;;;4989197;28;20172;-69
2023/10/16 10:01:55;;;;;;;6.05;1.90;;;14.20;80.40;;;;;;4988682;28;20038;-68
2023/10/16 10:04:24;;;;;;;18.58;2.60;;;14.30;82.00;;;;;;4987455;28;20034;-68
2023/10/16 10:06:57;;;;;;;4.93;1.75;;;14.40;81.60;;;;;;4989765;28;20034;-70
2023/10/16 10:09:44;;;;;;;6.60;2.22;;;14.40;82.80;;;;;;4988260;28;20034;-70
2023/10/16 10:12:28;;;;;;;10.65;2.17;;;14.40;82.30;;;;;;4985494;28;20041;-68
2023/10/16 10:15:16;;;;;;;8.82;2.58;;;14.40;80.80;;;;;;4987375;28;20045;-66
2023/10/16 10:17:46;;;;;;;6.72;2.30;;;14.30;81.00;;;;;;4989816;28;20030;-70
2023/10/16 10:20:45;;;;;;;5.75;2.03;;;14.40;83.40;;;;;;4988572;28;20034;-69
2023/10/16 10:23:08;;;;;;;6.63;2.00;;;14.50;81.40;;;;;;4984591;28;20050;-70
2023/10/16 10:25:36;;;;;;;4.53;1.80;;;14.40;84.00;;;;;;4992669;28;20093;-68
2023/10/16 10:28:09;;;;;;;9.15;1.92;;;14.40;81.50;;;;;;4989888;28;20030;-69
2023/10/16 10:30:39;;;;;;;5.78;2.08;;;14.50;82.50;;;;;;4994415;28;20038;-66
2023/10/16 10:33:06;;;;;;;5.38;2.00;;;14.50;81.90;;;;;;4990939;28;20034;-69
2023/10/16 10:35:38;;;;;;;;;;;14.50;82.30;;;;;;4993104;28;20022;-67
2023/10/16 10:38:21;;;;;;;6.32;1.75;;;14.50;82.30;;;;;;4991184;28;20350;-70
2023/10/16 10:41:06;;;;;;;6.53;2.25;;;14.40;82.90;;;;;;4988243;28;20053;-66
2023/10/16 10:43:46;;;;;;;5.75;2.00;;;14.40;82.90;;;;;;4989179;28;20058;-66
2023/10/16 10:46:13;;;;;;;3.00;1.95;;;14.40;83.40;;;;;;4992051;28;20034;-69
2023/10/16 10:48:41;;;;;;;4.82;2.20;;;14.40;83.10;;;;;;4996230;28;20057;-65
2023/10/16 10:51:13;;;;;;;4.28;1.83;;;14.30;83.40;;;;;;4992760;28;20042;-66
2023/10/16 10:53:52;;;;;;;4.03;1.88;;;14.30;83.80;;;;;;4991860;28;20104;-66
2023/10/16 10:56:20;;;;;;;4.53;1.92;;;14.30;83.60;;;;;;4996867;28;20037;-68
2023/10/16 10:58:47;;;;;;;4.95;1.92;;;14.30;82.80;;;;;;4992829;28;20412;-71
2023/10/16 11:01:33;;;;;;;4.82;2.22;;;14.30;83.80;;;;;;4991205;28;20030;-70
2023/10/16 11:04:01;;;;;;;6.68;2.70;;;14.30;83.30;;;;;;4988820;28;20038;-69
2023/10/16 11:06:39;;;;;;;3.10;1.70;;;14.30;83.40;;;;;;4992547;28;20108;-68
2023/10/16 11:09:18;;;;;;;7.70;1.75;;;14.30;84.10;;;;;;4990171;28;20096;-70
2023/10/16 11:11:45;;;;;;;8.55;2.00;;;14.40;83.90;;;;;;4989653;28;20306;-69
2023/10/16 11:14:12;;;;;;;6.18;2.28;;;14.40;83.20;;;;;;4989857;28;20038;-68
2023/10/16 11:16:44;;;;;;;8.80;1.75;;;14.60;85.80;;;;;;4986087;28;20121;-70
2023/10/16 11:19:10;;;;;;;4.47;1.88;;;14.70;84.40;;;;;;4992016;28;20064;-70
2023/10/16 11:21:47;;;;;;;8.97;1.83;;;14.80;83.80;;;;;;4989960;28;20490;-70
2023/10/16 11:24:13;;;;;;;4.88;1.90;;;14.90;83.80;;;;;;4989409;28;20048;-69
2023/10/16 11:26:41;;;;;;;4.90;2.05;;;14.90;83.60;;;;;;4992926;28;20039;-65
2023/10/16 11:29:12;;;;;;;9.68;1.90;;;14.80;82.10;;;;;;4993045;28;20027;-66
2023/10/16 11:31:41;;;;;;;5.88;2.25;;;14.80;82.80;;;;;;4992213;28;20034;-70
2023/10/16 11:34:12;;;;;;;4.00;1.70;;;14.80;82.30;;;;;;4989328;28;20042;-66
2023/10/16 11:36:38;;;;;;;4.50;2.00;;;14.70;81.40;;;;;;4993862;28;20064;-71
2023/10/16 11:39:06;;;;;;;5.53;2.00;;;14.70;84.30;;;;;;4992310;28;20084;-70
2023/10/16 11:41:33;;;;;;;7.25;2.33;;;14.80;85.00;;;;;;4987007;28;20029;-71
2023/10/16 11:44:14;;;;;;;2.50;1.80;;;14.80;83.60;;;;;;4989147;28;20038;-70
2023/10/16 11:46:52;;;;;;;7.80;2.50;;;14.80;83.50;;;;;;4992600;28;20034;-72
2023/10/16 11:51:48;;;;;;;11.38;1.92;;;14.70;84.70;;;;;;4988265;28;20038;-71
2023/10/16 11:54:19;;;;;;;14.48;2.53;;;14.80;84.60;;;;;;4990465;28;20065;-70
2023/10/16 11:56:47;;;;;;;4.75;2.08;;;14.90;84.30;;;;;;4988617;28;20026;-68
2023/10/16 11:59:15;;;;;;;8.70;2.40;;;15.00;84.30;;;;;;4990059;28;20042;-70
2023/10/16 12:01:41;;;;;;;6.82;2.10;;;15.10;85.10;;;;;;4990533;28;20026;-71
2023/10/16 12:04:09;;;;;;;7.40;2.08;;;15.00;83.70;;;;;;4990155;28;20034;-71
2023/10/16 12:06:35;;;;;;;6.10;2.00;;;15.00;83.90;;;;;;4990105;28;20101;-70
2023/10/16 12:09:01;;;;;;;6.90;2.17;;;15.00;82.40;;;;;;4990141;28;20113;-70
2023/10/16 12:11:26;;;;;;;5.90;2.20;;;15.10;83.20;;;;;;4990774;28;20030;-69
2023/10/16 12:13:52;;;;;;;7.63;2.30;;;15.00;84.40;;;;;;4991058;28;20309;-68
2023/10/16 12:16:24;;;;;;;4.70;1.87;;;15.10;85.30;;;;;;4990329;28;20607;-66
2023/10/16 12:18:51;;;;;;;6.13;1.88;;;15.20;84.10;;;;;;4992643;28;20069;-66
2023/10/16 12:21:17;;;;;;;10.73;2.42;;;15.10;80.90;;;;;;4987207;28;20030;-65
2023/10/16 12:23:43;;;;;;;8.80;2.60;;;15.30;82.20;;;;;;4990282;28;20395;-65
2023/10/16 12:26:09;;;;;;;5.55;2.10;;;15.20;85.00;;;;;;4990853;28;20772;-65
2023/10/16 12:28:35;;;;;;;7.87;1.70;;;15.30;83.60;;;;;;4988966;28;20080;-67
2023/10/16 12:31:02;;;;;;;9.53;2.63;;;15.20;84.60;;;;;;4991537;28;20030;-65
2023/10/16 12:33:30;;;;;;;6.32;2.13;;;15.30;84.20;;;;;;4991554;28;20056;-70
2023/10/16 12:35:57;;;;;;;7.75;2.38;;;15.20;82.90;;;;;;4990649;28;20076;-64
2023/10/16 12:38:25;;;;;;;9.20;1.95;;;15.20;82.90;;;;;;4990007;28;20080;-65
2023/10/16 12:40:55;;;;;;;13.35;2.25;;;15.30;82.60;;;;;;4987221;28;20472;-66
2023/10/16 12:43:21;;;;;;;3.47;1.90;;;15.40;84.30;;;;;;4989782;28;20030;-65
2023/10/16 12:45:51;;;;;;;7.65;1.90;;;15.40;80.70;;;;;;4989679;28;20022;-64
2023/10/16 12:48:17;;;;;;;5.15;1.90;;;15.40;82.50;;;;;;4991173;28;20033;-64
2023/10/16 12:50:47;;;;;;;7.03;1.65;;;15.40;88.70;;;;;;4990561;28;20483;-66
2023/10/16 12:53:13;;;;;;;6.07;2.20;;;15.60;85.30;;;;;;4986502;28;20054;-65
2023/10/16 12:55:40;;;;;;;9.70;2.15;;;15.70;84.50;;;;;;4985016;28;20037;-66
2023/10/16 12:58:10;;;;;;;6.15;2.17;;;15.80;83.70;;;;;;4988362;28;20419;-65
2023/10/16 13:00:39;;;;;;;11.38;2.50;;;15.90;86.70;;;;;;4991751;28;20046;-67
2023/10/16 13:03:14;;;;;;;3.28;1.88;;;15.90;82.70;;;;;;4990792;28;20031;-67
2023/10/16 13:05:40;;;;;;;6.57;2.20;;;16.10;82.30;;;;;;4987367;28;20451;-71
2023/10/16 13:08:08;;;;;;;5.10;2.20;;;16.10;80.90;;;;;;4987807;28;20380;-67
2023/10/16 13:10:34;;;;;;;6.82;2.63;;;16.10;80.40;;;;;;4988645;28;20153;-73
2023/10/16 13:13:00;;;;;;;4.22;1.90;;;16.20;78.50;;;;;;4991204;28;20038;-66
2023/10/16 13:15:29;;;;;;;9.02;3.65;;;16.30;81.40;;;;;;4986315;28;20030;-66
2023/10/16 13:17:55;;;;;;;8.05;2.00;;;16.30;81.30;;;;;;4988440;28;20886;-70
2023/10/16 13:20:27;;;;;;;2.03;1.58;;;16.30;80.00;;;;;;4988157;28;20057;-65
2023/10/16 13:22:54;;;;;;;3.35;1.48;;;16.30;81.00;;;;;;4990939;28;20042;-66
2023/10/16 13:25:22;;;;;;;2.65;1.58;;;16.30;80.90;;;;;;4985875;28;20069;-65
2023/10/16 13:27:48;;;;;;;3.83;1.88;;;16.30;80.60;;;;;;4989260;28;20577;-66
2023/10/16 13:30:16;;;;;;;10.68;1.50;;;16.40;80.20;;;;;;4986976;28;20108;-66
2023/10/16 13:32:46;;;;;;;3.45;1.42;;;16.50;82.70;;;;;;4985596;28;20065;-64
2023/10/16 13:35:18;;;;;;;2.85;1.67;;;16.50;83.90;;;;;;4993046;28;20033;-65
2023/10/16 13:37:48;;;;;;;3.50;1.70;;;16.50;80.40;;;;;;4991933;28;20038;-68
2023/10/16 13:40:22;;;;;;;6.03;1.70;;;16.40;79.20;;;;;;4990791;28;20561;-65
2023/10/16 13:42:49;;;;;;;6.88;2.10;;;16.30;81.80;;;;;;4986844;28;20414;-66
2023/10/16 13:45:16;;;;;;;;;;;16.40;80.70;;;;;;4989794;28;20038;-71
2023/10/16 13:47:43;;;;;;;3.65;2.05;;;16.30;81.40;;;;;;4991758;28;19936;-66
2023/10/16 13:50:13;;;;;;;5.05;2.10;;;16.30;80.10;;;;;;4989720;28;20026;-66
2023/10/16 13:52:43;;;;;;;3.63;1.60;;;16.40;83.70;;;;;;4986171;28;20069;-65
2023/10/16 13:55:13;;;;;;;4.25;1.90;;;16.50;83.90;;;;;;4989088;28;20109;-65
2023/10/16 13:57:42;;;;;;;4.18;1.58;;;16.50;82.10;;;;;;4986031;28;20049;-65
2023/10/16 14:00:31;;;;;;;4.43;1.80;;;16.50;81.30;;;;;;4993138;28;20141;-67
2023/10/16 14:05:38;;;;;;;6.75;2.00;;;16.40;83.60;;;;;;4987596;28;20061;-66
2023/10/16 14:08:05;;;;;;;4.60;2.50;;;16.30;83.20;;;;;;4987669;28;20030;-66
2023/10/16 14:10:30;;;;;;;4.47;2.20;;;16.20;83.50;;;;;;4987028;28;20041;-65
2023/10/16 14:13:00;;;;;;;6.10;2.20;;;16.30;84.00;;;;;;4987342;28;20414;-67
2023/10/16 14:15:32;;;;;;;4.53;1.80;;;16.30;84.10;;;;;;4986986;28;20023;-67
2023/10/16 14:17:59;;;;;;;3.55;1.95;;;16.40;84.70;;;;;;4986556;28;20053;-68
2023/10/16 14:20:34;;;;;;;3.10;1.75;;;16.40;81.90;;;;;;4987095;28;20038;-67
2023/10/16 14:23:01;;;;;;;5.05;2.00;;;16.30;83.50;;;;;;4986325;28;20046;-66
2023/10/16 14:25:32;;;;;;;;;;;16.30;82.80;;;;;;4988885;28;20033;-67
2023/10/16 14:28:11;;;;;;;6.45;1.50;;;16.30;84.50;;;;;;4989643;28;19924;-65
2023/10/16 14:30:39;;;;;;;7.43;1.70;;;16.30;85.10;;;;;;4982791;28;20113;-66
2023/10/16 14:33:06;;;;;;;6.43;1.80;;;16.30;83.40;;;;;;4987813;28;20050;-66
2023/10/16 14:35:37;;;;;;;4.97;1.80;;;16.30;86.10;;;;;;4988943;28;20030;-66
2023/10/16 14:38:04;;;;;;;3.28;1.70;;;16.30;82.60;;;;;;4989866;28;20113;-67
2023/10/16 14:40:29;;;;;;;5.18;2.22;;;16.30;83.40;;;;;;4988440;28;20062;-66
2023/10/16 14:42:55;;;;;;;3.77;1.83;;;16.30;82.70;;;;;;4987101;28;20135;-65
2023/10/16 14:45:23;;;;;;;6.07;1.80;;;16.30;83.90;;;;;;4987791;28;20026;-65
2023/10/16 14:47:49;;;;;;;3.50;1.60;;;16.30;84.20;;;;;;4988251;28;20057;-65
2023/10/16 14:50:15;;;;;;;7.53;1.90;;;16.30;83.60;;;;;;4988218;28;20026;-66
2023/10/16 14:52:41;;;;;;;6.15;2.25;;;16.30;83.70;;;;;;4986497;28;20038;-66
2023/10/16 14:55:08;;;;;;;5.10;2.03;;;16.30;85.10;;;;;;4988815;28;20122;-64
2023/10/16 14:57:34;;;;;;;7.60;1.70;;;16.30;82.70;;;;;;4989688;28;20030;-66
2023/10/16 15:00:00;;;;;;;6.30;2.40;;;16.30;82.80;;;;;;4987286;28;20691;-66
2023/10/16 15:02:28;;;;;;;2.37;1.67;;;16.20;83.40;;;;;;4986491;28;20029;-65
2023/10/16 15:04:54;;;;;;;4.15;1.70;;;16.20;83.20;;;;;;4985902;28;20038;-66
2023/10/16 15:07:21;;;;;;;;;;;16.20;84.00;;;;;;4989802;28;20030;-66
2023/10/16 15:09:48;;;;;;;5.35;1.75;;;16.10;83.90;;;;;;4990160;28;20255;-66
2023/10/16 15:12:14;;;;;;;9.65;1.90;;;16.10;84.30;;;;;;4988478;28;20155;-66
2023/10/16 15:14:40;;;;;;;3.70;1.67;;;16.10;84.70;;;;;;4992827;28;20526;-66